Time;durP1;ratioP1;P1;durP2;ratioP2;P2;SDS_P1;SDS_P2;PMS_P1;PMS_P2;Temp;Humidity;BMP_temperature;BMP_pressure;BME280_temperature;BME280_humidity;BME280_pressure;Samples;Min_cycle;Max_cycle;Signal;HPM_P1;HPM_P2
2024/01/26 00:02:25;;;;;;;30.48;12.20;;;7.80;99.90;;;;;;4991741;28;20471;-67
2024/01/26 00:04:51;;;;;;;30.33;13.25;;;7.80;99.90;;;;;;4992657;28;20034;-65
2024/01/26 00:07:16;;;;;;;28.40;13.00;;;7.80;99.90;;;;;;4992510;28;20438;-63
2024/01/26 00:09:42;;;;;;;30.17;12.77;;;7.80;99.90;;;;;;4990947;28;20034;-65
2024/01/26 00:12:08;;;;;;;33.13;13.23;;;7.70;99.90;;;;;;5011861;28;20030;-65
2024/01/26 00:14:33;;;;;;;30.15;14.10;;;7.70;99.90;;;;;;5009735;28;20033;-64
2024/01/26 00:16:59;;;;;;;30.08;13.50;;;7.70;99.90;;;;;;5011894;28;20030;-63
2024/01/26 00:19:24;;;;;;;33.78;14.57;;;7.80;99.90;;;;;;4997077;28;20034;-69
2024/01/26 00:21:50;;;;;;;33.67;13.65;;;7.80;99.90;;;;;;5007633;28;20479;-66
2024/01/26 00:24:16;;;;;;;26.75;13.40;;;7.80;99.90;;;;;;5005903;28;20042;-65
2024/01/26 00:26:41;;;;;;;31.80;13.93;;;7.80;99.90;;;;;;5006749;28;20046;-66
2024/01/26 00:29:07;;;;;;;30.00;13.95;;;7.80;99.90;;;;;;4999839;28;20113;-66
2024/01/26 00:31:32;;;;;;;35.63;14.40;;;7.80;99.90;;;;;;4994879;28;20023;-64
2024/01/26 00:33:58;;;;;;;31.92;14.18;;;7.80;99.90;;;;;;4996496;28;20030;-64
2024/01/26 00:36:24;;;;;;;29.35;13.70;;;7.90;99.90;;;;;;5010814;28;20083;-69
2024/01/26 00:38:50;;;;;;;32.88;13.27;;;7.90;99.90;;;;;;5010945;28;20030;-66
2024/01/26 00:41:15;;;;;;;27.33;12.55;;;7.90;99.90;;;;;;5011136;28;20041;-66
2024/01/26 00:43:41;;;;;;;25.10;11.75;;;7.90;99.90;;;;;;5009988;28;20099;-66
2024/01/26 00:46:07;;;;;;;26.38;11.98;;;7.90;99.90;;;;;;5010939;28;20052;-65
2024/01/26 00:48:33;;;;;;;25.65;12.07;;;7.90;99.90;;;;;;5008629;28;20113;-65
2024/01/26 00:50:59;;;;;;;27.30;11.43;;;7.90;99.90;;;;;;5001728;28;20109;-65
2024/01/26 00:53:24;;;;;;;28.73;12.68;;;8.00;99.90;;;;;;5001080;28;20057;-69
2024/01/26 00:55:50;;;;;;;24.05;10.90;;;8.00;99.90;;;;;;5010102;28;20458;-65
2024/01/26 00:58:16;;;;;;;20.17;10.02;;;8.00;99.90;;;;;;5010186;28;20478;-65
2024/01/26 01:00:42;;;;;;;24.08;10.13;;;8.00;99.90;;;;;;5003392;28;20030;-66
2024/01/26 01:03:08;;;;;;;19.70;9.65;;;8.10;99.90;;;;;;5011048;28;20033;-65
2024/01/26 01:05:34;;;;;;;21.67;9.70;;;8.10;99.90;;;;;;5008383;28;20030;-65
2024/01/26 01:07:59;;;;;;;25.60;11.23;;;8.10;99.90;;;;;;4997592;28;20451;-66
2024/01/26 01:10:25;;;;;;;23.45;10.77;;;8.10;99.90;;;;;;5008816;28;20026;-64
2024/01/26 01:12:52;;;;;;;23.35;9.60;;;8.10;99.90;;;;;;5009182;28;20713;-65
2024/01/26 01:15:18;;;;;;;21.95;10.30;;;8.10;99.90;;;;;;5009494;28;20139;-67
2024/01/26 01:17:46;;;;;;;24.60;10.65;;;8.10;99.90;;;;;;5009731;28;20025;-65
2024/01/26 01:20:13;;;;;;;23.08;10.30;;;8.10;99.90;;;;;;5009049;28;20045;-66
2024/01/26 01:22:41;;;;;;;25.83;11.05;;;8.10;99.90;;;;;;4991131;28;20031;-65
2024/01/26 01:25:07;;;;;;;26.45;9.70;;;8.10;99.90;;;;;;4996588;28;20570;-65
2024/01/26 01:27:36;;;;;;;24.38;9.77;;;8.10;99.90;;;;;;4991843;28;20040;-65
2024/01/26 01:30:02;;;;;;;24.92;11.18;;;8.10;99.90;;;;;;4990886;28;20033;-66
2024/01/26 01:32:27;;;;;;;22.35;10.43;;;8.10;99.90;;;;;;5004293;28;20401;-69
2024/01/26 01:34:53;;;;;;;23.30;10.45;;;8.10;99.90;;;;;;5007682;28;20030;-64
2024/01/26 01:37:19;;;;;;;25.33;10.93;;;8.10;99.90;;;;;;5005839;28;20021;-65
2024/01/26 01:39:44;;;;;;;24.25;10.93;;;8.10;99.90;;;;;;4989339;28;20038;-66
2024/01/26 01:42:15;;;;;;;25.73;11.15;;;8.10;99.90;;;;;;5005523;28;20046;-65
2024/01/26 01:44:45;;;;;;;24.98;11.57;;;8.00;99.90;;;;;;5008093;28;20123;-65
2024/01/26 01:47:13;;;;;;;24.67;11.67;;;8.10;99.90;;;;;;5008358;28;20049;-65
2024/01/26 01:49:40;;;;;;;22.35;11.05;;;8.10;99.90;;;;;;5009462;28;20045;-65
2024/01/26 01:52:11;;;;;;;24.83;11.07;;;8.00;99.90;;;;;;4994337;28;20717;-65
2024/01/26 01:54:40;;;;;;;;;;;8.00;99.90;;;;;;5004722;28;20038;-66
2024/01/26 01:57:06;;;;;;;23.20;10.85;;;8.10;99.90;;;;;;5002727;28;19996;-65
2024/01/26 01:59:32;;;;;;;23.58;11.45;;;8.00;99.90;;;;;;5004249;28;20022;-69
2024/01/26 02:01:58;;;;;;;25.50;11.75;;;8.00;99.90;;;;;;5004600;28;20080;-65
2024/01/26 02:04:23;;;;;;;30.83;11.05;;;8.00;99.90;;;;;;5008837;28;20030;-65
2024/01/26 02:06:57;;;;;;;29.95;11.68;;;8.00;99.90;;;;;;5006841;28;20124;-64
2024/01/26 02:09:22;;;;;;;23.83;11.30;;;7.90;99.90;;;;;;5004670;28;20041;-66
2024/01/26 02:11:48;;;;;;;27.00;12.05;;;7.90;99.90;;;;;;4994086;28;20031;-63
2024/01/26 02:14:14;;;;;;;27.73;11.75;;;7.90;99.90;;;;;;5004411;28;20030;-64
2024/01/26 02:16:50;;;;;;;26.80;12.63;;;7.90;99.90;;;;;;5008847;28;20038;-66
2024/01/26 02:19:16;;;;;;;29.65;11.23;;;7.90;99.90;;;;;;5008147;28;20550;-65
2024/01/26 02:21:42;;;;;;;23.88;11.30;;;7.90;99.90;;;;;;5005537;28;20116;-65
2024/01/26 02:24:07;;;;;;;24.88;11.48;;;7.90;99.90;;;;;;4998869;28;20029;-65
2024/01/26 02:26:33;;;;;;;29.42;11.63;;;7.90;99.90;;;;;;4991668;28;20069;-69
2024/01/26 02:28:59;;;;;;;24.80;10.57;;;7.90;99.90;;;;;;4998661;28;20030;-65
2024/01/26 02:31:24;;;;;;;24.80;11.73;;;7.80;99.90;;;;;;5008844;28;20128;-66
2024/01/26 02:33:50;;;;;;;22.38;10.73;;;7.90;99.90;;;;;;5004687;28;20121;-66
2024/01/26 02:36:15;;;;;;;22.40;10.13;;;7.90;99.90;;;;;;5008720;28;20095;-64
2024/01/26 02:38:41;;;;;;;29.25;10.90;;;7.80;99.90;;;;;;5004939;28;20441;-66
2024/01/26 02:41:07;;;;;;;23.20;10.75;;;7.90;99.90;;;;;;5015883;28;20061;-65
2024/01/26 02:43:32;;;;;;;22.45;10.73;;;7.90;99.90;;;;;;5001277;28;20067;-70
2024/01/26 02:45:58;;;;;;;25.67;10.80;;;7.90;99.90;;;;;;5006992;28;20050;-64
2024/01/26 02:48:23;;;;;;;25.33;9.82;;;7.90;99.90;;;;;;5007283;28;20463;-64
2024/01/26 02:50:49;;;;;;;20.60;9.43;;;7.90;99.90;;;;;;5002891;28;20041;-65
2024/01/26 02:53:15;;;;;;;18.27;8.77;;;7.90;99.90;;;;;;5004164;28;20033;-66
2024/01/26 02:55:40;;;;;;;18.58;8.50;;;7.90;99.90;;;;;;5007636;28;20367;-66
2024/01/26 02:58:06;;;;;;;14.88;8.02;;;7.90;99.90;;;;;;5008675;28;20049;-66
2024/01/26 03:00:32;;;;;;;18.80;8.40;;;7.90;99.90;;;;;;5009080;28;20029;-64
2024/01/26 03:02:57;;;;;;;21.65;7.97;;;7.80;99.90;;;;;;5007908;28;20030;-65
2024/01/26 03:05:23;;;;;;;18.50;8.10;;;7.90;99.90;;;;;;5008068;28;20065;-65
2024/01/26 03:07:49;;;;;;;22.80;9.32;;;7.90;99.90;;;;;;4991524;28;20030;-65
2024/01/26 03:10:14;;;;;;;18.88;9.27;;;7.90;99.90;;;;;;5006292;28;20092;-64
2024/01/26 03:12:40;;;;;;;21.15;10.00;;;7.80;99.90;;;;;;5007272;28;20080;-64
2024/01/26 03:15:06;;;;;;;22.80;10.15;;;7.80;99.90;;;;;;5008863;28;20943;-64
2024/01/26 03:17:31;;;;;;;17.73;9.25;;;7.90;99.90;;;;;;5008208;28;20450;-66
2024/01/26 03:19:58;;;;;;;20.25;8.43;;;7.90;99.90;;;;;;5004171;28;20033;-64
2024/01/26 03:22:23;;;;;;;17.42;8.02;;;7.90;99.90;;;;;;5008570;28;20041;-64
2024/01/26 03:24:49;;;;;;;15.93;8.32;;;7.90;99.90;;;;;;5008202;28;20033;-65
2024/01/26 03:27:14;;;;;;;15.82;7.65;;;7.90;99.90;;;;;;4998982;28;20462;-65
2024/01/26 03:29:40;;;;;;;15.50;7.28;;;7.80;99.90;;;;;;4994380;28;20050;-65
2024/01/26 03:32:06;;;;;;;14.70;7.03;;;7.80;99.90;;;;;;5006970;28;20470;-65
2024/01/26 03:34:31;;;;;;;12.90;6.50;;;7.80;99.90;;;;;;4998963;28;20391;-65
2024/01/26 03:36:57;;;;;;;12.95;6.47;;;7.80;99.90;;;;;;5009429;28;20072;-65
2024/01/26 03:39:23;;;;;;;12.23;5.78;;;7.90;99.90;;;;;;5012501;28;20026;-64
2024/01/26 03:41:49;;;;;;;13.05;6.20;;;7.90;99.90;;;;;;5011783;28;20022;-65
2024/01/26 03:44:15;;;;;;;11.48;5.55;;;7.90;99.90;;;;;;5011170;28;20054;-65
2024/01/26 03:46:42;;;;;;;11.32;5.97;;;7.80;99.90;;;;;;5011136;28;20349;-65
2024/01/26 03:49:09;;;;;;;11.95;5.55;;;7.80;99.90;;;;;;5012040;28;20347;-64
2024/01/26 03:51:38;;;;;;;12.20;5.50;;;7.90;99.90;;;;;;5011734;28;20432;-64
2024/01/26 03:54:04;;;;;;;9.45;5.30;;;7.80;99.90;;;;;;5011485;28;20030;-65
2024/01/26 03:56:30;;;;;;;10.85;5.50;;;7.80;99.90;;;;;;5012087;28;20172;-66
2024/01/26 03:58:55;;;;;;;8.73;5.00;;;7.80;99.90;;;;;;5005007;28;20117;-65
2024/01/26 04:01:21;;;;;;;10.23;4.95;;;7.80;99.90;;;;;;5004563;28;20037;-64
2024/01/26 04:03:47;;;;;;;9.93;4.78;;;7.80;99.90;;;;;;5009582;28;20037;-65
2024/01/26 04:06:13;;;;;;;8.95;4.45;;;7.80;99.90;;;;;;5005496;28;20030;-63
2024/01/26 04:08:38;;;;;;;11.35;4.90;;;7.70;99.90;;;;;;5001342;28;20351;-67
2024/01/26 04:11:04;;;;;;;8.23;4.55;;;7.80;99.90;;;;;;5009501;28;20030;-64
2024/01/26 04:13:30;;;;;;;7.47;4.55;;;7.80;99.90;;;;;;5011255;28;20120;-65
2024/01/26 04:15:56;;;;;;;8.52;4.68;;;7.80;99.90;;;;;;5009258;28;20048;-65
2024/01/26 04:18:21;;;;;;;9.20;4.35;;;7.80;99.90;;;;;;5011714;28;20060;-64
2024/01/26 04:20:51;;;;;;;9.80;4.30;;;7.80;99.90;;;;;;5010650;28;20037;-65
2024/01/26 04:23:16;;;;;;;9.73;4.65;;;7.80;99.90;;;;;;5008407;28;20448;-65
2024/01/26 04:25:42;;;;;;;9.07;4.05;;;7.70;99.90;;;;;;5010014;28;20095;-65
2024/01/26 04:28:08;;;;;;;11.35;3.95;;;7.70;99.90;;;;;;5011478;28;20034;-65
2024/01/26 04:30:36;;;;;;;8.73;4.20;;;7.70;99.90;;;;;;5011657;28;20061;-64
2024/01/26 04:33:02;;;;;;;6.45;3.67;;;7.80;99.90;;;;;;5008883;28;20033;-63
2024/01/26 04:35:27;;;;;;;8.50;4.25;;;7.70;99.90;;;;;;5010945;28;20041;-65
2024/01/26 04:37:53;;;;;;;7.88;4.13;;;7.70;99.90;;;;;;5006267;28;20034;-65
2024/01/26 04:40:19;;;;;;;7.68;4.13;;;7.60;99.90;;;;;;5009437;28;20026;-64
2024/01/26 04:42:45;;;;;;;6.78;3.92;;;7.60;99.90;;;;;;5007411;28;20375;-65
2024/01/26 04:45:10;;;;;;;7.65;3.72;;;7.70;99.90;;;;;;5005454;28;20486;-65
2024/01/26 04:47:36;;;;;;;9.20;4.10;;;7.70;99.90;;;;;;5010119;28;20118;-65
2024/01/26 04:50:02;;;;;;;7.82;3.80;;;7.70;99.90;;;;;;5006111;28;20030;-65
2024/01/26 04:52:28;;;;;;;9.02;3.45;;;7.70;99.90;;;;;;5008170;28;20084;-65
2024/01/26 04:54:54;;;;;;;8.95;3.30;;;7.70;99.90;;;;;;5007069;28;20081;-64
2024/01/26 04:57:20;;;;;;;6.53;3.40;;;7.70;99.90;;;;;;4998991;28;20029;-65
2024/01/26 04:59:45;;;;;;;6.32;3.70;;;7.70;99.90;;;;;;4992799;28;20034;-65
2024/01/26 05:02:11;;;;;;;7.55;3.97;;;7.70;99.90;;;;;;5011344;28;20543;-65
2024/01/26 05:04:37;;;;;;;6.45;3.40;;;7.70;99.90;;;;;;4997732;28;20034;-66
2024/01/26 05:07:02;;;;;;;6.60;2.97;;;7.80;99.90;;;;;;5002003;28;20026;-65
2024/01/26 05:09:28;;;;;;;7.97;3.53;;;7.70;99.90;;;;;;5009354;28;20418;-65
2024/01/26 05:11:54;;;;;;;6.20;2.75;;;7.80;99.90;;;;;;5010212;28;20149;-66
2024/01/26 05:14:21;;;;;;;5.63;2.85;;;7.80;99.90;;;;;;5010272;28;20041;-66
2024/01/26 05:16:47;;;;;;;5.00;2.80;;;7.80;99.90;;;;;;4993801;28;20034;-66
2024/01/26 05:19:14;;;;;;;4.07;2.40;;;7.80;99.90;;;;;;5000535;28;20521;-66
2024/01/26 05:21:40;;;;;;;5.07;2.60;;;7.80;99.90;;;;;;5010659;28;20062;-67
2024/01/26 05:24:06;;;;;;;5.00;2.70;;;7.90;99.90;;;;;;5009690;28;20033;-65
2024/01/26 05:26:32;;;;;;;7.88;2.70;;;7.90;99.90;;;;;;5010458;28;20056;-66
2024/01/26 05:28:57;;;;;;;5.28;2.50;;;7.90;99.90;;;;;;5010095;28;20494;-65
2024/01/26 05:31:23;;;;;;;4.00;2.10;;;7.90;99.90;;;;;;5009935;28;20105;-63
2024/01/26 05:33:49;;;;;;;6.38;2.40;;;8.00;99.90;;;;;;5009787;28;20026;-65
2024/01/26 05:36:14;;;;;;;3.33;1.90;;;8.00;99.90;;;;;;5010023;28;20095;-65
2024/01/26 05:38:40;;;;;;;4.88;2.42;;;8.00;99.90;;;;;;5010464;28;20049;-65
2024/01/26 05:41:06;;;;;;;4.03;1.92;;;8.00;99.90;;;;;;5009402;28;20032;-65
2024/01/26 05:43:31;;;;;;;2.38;1.40;;;8.00;99.90;;;;;;4995650;28;20034;-65
2024/01/26 05:45:57;;;;;;;5.40;2.10;;;8.10;99.90;;;;;;4989844;28;20093;-65
2024/01/26 05:48:22;;;;;;;4.75;1.92;;;8.10;99.90;;;;;;4990580;28;20069;-65
2024/01/26 05:50:48;;;;;;;5.90;1.50;;;8.10;99.90;;;;;;4995605;28;20463;-66
2024/01/26 05:53:14;;;;;;;2.47;1.25;;;8.10;99.90;;;;;;5010103;28;20033;-64
2024/01/26 05:55:39;;;;;;;4.13;1.20;;;8.20;99.90;;;;;;5009884;28;20034;-66
2024/01/26 05:58:05;;;;;;;4.97;1.60;;;8.20;99.90;;;;;;5009038;28;20037;-66
2024/01/26 06:00:31;;;;;;;2.90;1.30;;;8.30;99.90;;;;;;5006083;28;20041;-66
2024/01/26 06:02:56;;;;;;;2.90;1.20;;;8.30;99.90;;;;;;4989400;28;20142;-67
2024/01/26 06:05:22;;;;;;;2.55;1.10;;;8.30;99.90;;;;;;4988932;28;20085;-64
2024/01/26 06:07:48;;;;;;;1.70;0.95;;;8.30;99.90;;;;;;5008450;28;20057;-65
2024/01/26 06:10:13;;;;;;;2.53;1.08;;;8.20;99.90;;;;;;5009225;28;20060;-67
2024/01/26 06:12:40;;;;;;;4.22;0.90;;;8.30;99.90;;;;;;5009697;28;20037;-66
2024/01/26 06:15:08;;;;;;;2.90;1.10;;;8.20;99.90;;;;;;5008316;28;20706;-65
2024/01/26 06:17:35;;;;;;;2.50;1.08;;;8.20;99.90;;;;;;5009333;28;20378;-65
2024/01/26 06:20:03;;;;;;;3.25;1.00;;;8.10;99.90;;;;;;5008453;28;20092;-65
2024/01/26 06:22:28;;;;;;;4.28;1.15;;;8.10;99.90;;;;;;5009264;28;20065;-64
2024/01/26 06:24:54;;;;;;;1.75;0.98;;;8.10;99.90;;;;;;5009024;28;20089;-64
2024/01/26 06:27:20;;;;;;;2.10;1.10;;;8.10;99.90;;;;;;4994538;28;20427;-65
2024/01/26 06:29:46;;;;;;;3.15;1.40;;;8.00;99.90;;;;;;4994568;28;20026;-70
2024/01/26 06:32:12;;;;;;;5.15;1.67;;;8.00;99.90;;;;;;5009069;28;20387;-66
2024/01/26 06:34:40;;;;;;;2.53;1.35;;;8.00;99.90;;;;;;5008549;28;20072;-66
2024/01/26 06:37:06;;;;;;;1.65;0.98;;;8.00;99.90;;;;;;5008259;28;20125;-67
2024/01/26 06:39:34;;;;;;;4.10;1.55;;;8.00;99.90;;;;;;5009115;28;20161;-65
2024/01/26 06:42:00;;;;;;;2.17;1.20;;;8.10;99.90;;;;;;5008640;28;20038;-66
2024/01/26 06:44:25;;;;;;;2.78;1.20;;;8.10;99.90;;;;;;5006450;28;20364;-66
2024/01/26 06:46:51;;;;;;;3.42;1.20;;;8.10;99.90;;;;;;5004855;28;20042;-66
2024/01/26 06:49:17;;;;;;;2.10;1.30;;;8.20;99.90;;;;;;5009011;28;20034;-65
2024/01/26 06:51:43;;;;;;;4.32;1.65;;;8.20;99.90;;;;;;5008471;28;20034;-67
2024/01/26 06:54:08;;;;;;;2.72;1.45;;;8.10;99.90;;;;;;5008306;28;20116;-63
2024/01/26 06:56:34;;;;;;;3.10;1.48;;;8.20;99.90;;;;;;4993419;28;20141;-62
2024/01/26 06:59:00;;;;;;;10.18;1.70;;;8.20;99.90;;;;;;4991205;28;20026;-67
2024/01/26 07:01:25;;;;;;;1.58;1.00;;;8.10;99.90;;;;;;5006962;28;20083;-65
2024/01/26 07:03:51;;;;;;;4.68;1.38;;;8.10;99.90;;;;;;5008065;28;20033;-68
2024/01/26 07:06:17;;;;;;;3.72;1.73;;;8.10;99.90;;;;;;5006763;28;20056;-65
2024/01/26 07:08:42;;;;;;;3.92;1.63;;;8.10;99.90;;;;;;5008840;28;20517;-66
2024/01/26 07:11:08;;;;;;;4.10;1.67;;;8.10;99.90;;;;;;5008437;28;20034;-65
2024/01/26 07:13:33;;;;;;;4.43;1.65;;;8.10;99.90;;;;;;4997918;28;20085;-64
2024/01/26 07:15:59;;;;;;;4.07;1.30;;;8.10;99.90;;;;;;4999580;28;20033;-65
2024/01/26 07:18:25;;;;;;;4.90;1.67;;;8.10;99.90;;;;;;5008859;28;20037;-65
2024/01/26 07:20:50;;;;;;;3.13;1.33;;;8.10;99.90;;;;;;5008415;28;20030;-68
2024/01/26 07:23:16;;;;;;;3.88;1.30;;;8.20;99.90;;;;;;5008207;28;20038;-66
2024/01/26 07:25:41;;;;;;;2.95;1.10;;;8.30;99.90;;;;;;5001876;28;20476;-65
2024/01/26 07:28:07;;;;;;;4.25;1.40;;;8.30;99.90;;;;;;5007605;28;20886;-65
2024/01/26 07:30:33;;;;;;;3.45;1.60;;;8.30;99.90;;;;;;5023468;28;20026;-64
2024/01/26 07:32:59;;;;;;;2.97;1.40;;;8.40;99.90;;;;;;5007796;28;20467;-64
2024/01/26 07:35:24;;;;;;;5.90;1.60;;;8.40;99.90;;;;;;5002813;28;20050;-64
2024/01/26 07:37:50;;;;;;;2.63;1.55;;;8.40;99.90;;;;;;4990657;28;20451;-69
2024/01/26 07:40:16;;;;;;;4.40;1.70;;;8.40;99.90;;;;;;5008216;28;20148;-65
2024/01/26 07:42:42;;;;;;;3.42;1.50;;;8.40;99.90;;;;;;5008644;28;20057;-66
2024/01/26 07:45:08;;;;;;;6.13;1.67;;;8.40;99.90;;;;;;5006293;28;20120;-65
2024/01/26 07:47:36;;;;;;;3.28;1.60;;;8.50;99.90;;;;;;5008437;28;20045;-65
2024/01/26 07:50:03;;;;;;;3.85;1.50;;;8.50;99.90;;;;;;5006973;28;20433;-65
2024/01/26 07:52:29;;;;;;;2.63;1.20;;;8.50;99.90;;;;;;5005833;28;20044;-65
2024/01/26 07:54:54;;;;;;;4.57;1.10;;;8.60;99.90;;;;;;5006009;28;20037;-69
2024/01/26 07:57:21;;;;;;;3.42;1.30;;;8.60;99.90;;;;;;5008304;28;20034;-63
2024/01/26 07:59:48;;;;;;;5.90;1.10;;;8.60;99.90;;;;;;5007040;28;20045;-66
2024/01/26 08:02:14;;;;;;;2.55;1.00;;;8.60;99.90;;;;;;4995161;28;20022;-65
2024/01/26 08:04:39;;;;;;;2.75;1.27;;;8.60;99.90;;;;;;5000416;28;20113;-66
2024/01/26 08:07:05;;;;;;;2.38;1.10;;;8.70;99.90;;;;;;5003537;28;20117;-64
2024/01/26 08:09:31;;;;;;;4.22;1.40;;;8.70;99.90;;;;;;5006708;28;20034;-64
2024/01/26 08:11:56;;;;;;;2.20;1.20;;;8.70;99.90;;;;;;5007555;28;20034;-65
2024/01/26 08:14:22;;;;;;;1.95;1.00;;;8.70;99.90;;;;;;5007129;28;20034;-64
2024/01/26 08:16:48;;;;;;;3.85;1.20;;;8.80;99.90;;;;;;5004585;28;20467;-64
2024/01/26 08:19:13;;;;;;;1.90;0.95;;;8.80;99.90;;;;;;5010266;28;20684;-64
2024/01/26 08:21:39;;;;;;;2.97;1.20;;;8.80;99.90;;;;;;5011522;28;20034;-64
2024/01/26 08:24:06;;;;;;;3.22;1.25;;;8.80;99.90;;;;;;5010884;28;20057;-64
2024/01/26 08:26:32;;;;;;;2.80;1.00;;;8.90;99.90;;;;;;5010716;28;20092;-66
2024/01/26 08:28:57;;;;;;;2.17;1.20;;;8.90;99.90;;;;;;5010517;28;20065;-65
2024/01/26 08:31:23;;;;;;;4.30;1.23;;;8.90;99.90;;;;;;5011043;28;20036;-65
2024/01/26 08:33:49;;;;;;;2.28;1.20;;;8.90;99.90;;;;;;5011067;28;20137;-65
2024/01/26 08:36:15;;;;;;;5.50;1.30;;;9.00;99.90;;;;;;5003185;28;20672;-65
2024/01/26 08:38:41;;;;;;;3.22;1.05;;;9.00;99.90;;;;;;4997675;28;20113;-66
2024/01/26 08:41:09;;;;;;;2.35;1.15;;;9.10;99.90;;;;;;5010558;28;20058;-65
2024/01/26 08:43:35;;;;;;;4.15;1.30;;;9.10;99.90;;;;;;5010514;28;20040;-66
2024/01/26 08:46:00;;;;;;;3.58;1.30;;;9.20;99.90;;;;;;5002692;28;20030;-65
2024/01/26 08:48:26;;;;;;;2.75;1.20;;;9.30;99.90;;;;;;4992066;28;20056;-65
2024/01/26 08:50:51;;;;;;;3.08;1.13;;;9.30;99.90;;;;;;4991490;28;20387;-66
2024/01/26 08:53:17;;;;;;;2.03;0.95;;;9.30;99.90;;;;;;5006910;28;20045;-64
2024/01/26 08:55:44;;;;;;;2.30;1.08;;;9.30;99.90;;;;;;5010626;28;20029;-65
2024/01/26 08:58:09;;;;;;;2.97;0.80;;;9.30;99.90;;;;;;5010036;28;20512;-65
2024/01/26 09:00:35;;;;;;;3.10;0.85;;;9.40;99.90;;;;;;5011231;28;20033;-66
2024/01/26 09:03:02;;;;;;;2.55;0.90;;;9.50;99.90;;;;;;5010265;28;20110;-66
2024/01/26 09:05:28;;;;;;;2.25;1.10;;;9.50;99.90;;;;;;5010170;28;20034;-65
2024/01/26 09:07:54;;;;;;;3.85;1.23;;;9.50;99.90;;;;;;5010701;28;20109;-68
2024/01/26 09:10:23;;;;;;;2.17;1.20;;;9.60;99.90;;;;;;4991696;28;20129;-65
2024/01/26 09:12:49;;;;;;;4.13;1.40;;;9.60;99.90;;;;;;4991358;28;20037;-64
2024/01/26 09:15:15;;;;;;;3.15;1.23;;;9.60;99.90;;;;;;4989119;28;20030;-65
2024/01/26 09:17:41;;;;;;;2.10;1.10;;;9.60;99.90;;;;;;5009865;28;20049;-67
2024/01/26 09:20:07;;;;;;;1.92;1.00;;;9.70;99.90;;;;;;4996280;28;20042;-64
2024/01/26 09:22:33;;;;;;;2.88;1.08;;;9.80;99.90;;;;;;4991108;28;20065;-64
2024/01/26 09:24:59;;;;;;;1.83;0.90;;;9.80;99.90;;;;;;4990404;28;20050;-69
2024/01/26 09:27:25;;;;;;;2.60;0.90;;;9.80;99.90;;;;;;4991220;28;20046;-66
2024/01/26 09:29:51;;;;;;;1.65;0.80;;;9.90;99.90;;;;;;4990368;28;20038;-65
2024/01/26 09:32:17;;;;;;;3.28;1.00;;;9.90;99.90;;;;;;4990401;28;20149;-64
2024/01/26 09:34:44;;;;;;;2.13;1.10;;;10.00;99.90;;;;;;5003508;28;20391;-66
2024/01/26 09:37:09;;;;;;;6.18;1.10;;;10.00;99.90;;;;;;5002468;28;20038;-66
2024/01/26 09:39:35;;;;;;;1.58;0.90;;;10.00;99.90;;;;;;4997874;28;20052;-65
2024/01/26 09:42:01;;;;;;;3.10;1.13;;;10.10;99.90;;;;;;5008952;28;20075;-64
2024/01/26 09:44:27;;;;;;;3.20;0.90;;;10.10;99.90;;;;;;5009900;28;20057;-67
2024/01/26 09:46:53;;;;;;;3.50;1.00;;;10.30;99.90;;;;;;5009083;28;20155;-66
2024/01/26 09:49:19;;;;;;;2.05;0.90;;;10.40;99.90;;;;;;5009378;28;20112;-65
2024/01/26 09:51:46;;;;;;;3.05;0.98;;;10.50;99.90;;;;;;5009497;28;20091;-65
2024/01/26 09:54:13;;;;;;;2.53;1.02;;;10.50;99.90;;;;;;5008562;28;20609;-65
2024/01/26 09:56:39;;;;;;;2.53;1.17;;;10.50;99.90;;;;;;5008126;28;20040;-65
2024/01/26 09:59:08;;;;;;;2.28;1.00;;;10.60;99.90;;;;;;4993154;28;20041;-64
2024/01/26 10:01:36;;;;;;;3.70;1.23;;;10.60;99.90;;;;;;5001965;28;20426;-65
2024/01/26 10:04:02;;;;;;;1.65;1.05;;;10.70;99.90;;;;;;5003240;28;20580;-68
2024/01/26 10:06:29;;;;;;;3.30;1.20;;;10.90;99.90;;;;;;5002380;28;20109;-65
2024/01/26 10:08:55;;;;;;;2.00;1.20;;;11.20;99.90;;;;;;5009477;28;20508;-65
2024/01/26 10:11:21;;;;;;;2.58;1.00;;;11.20;99.90;;;;;;5008424;28;20030;-64
2024/01/26 10:13:47;;;;;;;2.90;1.25;;;11.00;99.90;;;;;;5009667;28;20372;-65
2024/01/26 10:16:13;;;;;;;2.20;1.02;;;10.90;99.90;;;;;;5008114;28;20061;-64
2024/01/26 10:18:43;;;;;;;3.60;1.20;;;10.80;99.90;;;;;;5009089;28;20101;-64
2024/01/26 10:21:12;;;;;;;;;;;10.70;99.90;;;;;;5008561;28;20033;-65
2024/01/26 10:23:38;;;;;;;2.40;1.00;;;10.70;99.90;;;;;;5009531;28;20290;-65
2024/01/26 10:26:04;;;;;;;3.67;1.27;;;10.70;99.90;;;;;;5000053;28;20121;-66
2024/01/26 10:28:30;;;;;;;3.58;1.42;;;10.70;99.90;;;;;;5009274;28;20076;-65
2024/01/26 10:30:56;;;;;;;5.00;1.50;;;10.70;99.90;;;;;;5009297;28;20028;-64
2024/01/26 10:33:22;;;;;;;2.25;1.10;;;10.60;99.90;;;;;;5007530;28;20052;-64
2024/01/26 10:35:51;;;;;;;2.10;1.10;;;10.70;99.90;;;;;;5008385;28;20533;-66
2024/01/26 10:38:16;;;;;;;2.42;1.10;;;10.70;99.90;;;;;;5008467;28;20128;-65
2024/01/26 10:40:44;;;;;;;2.83;1.15;;;10.80;99.90;;;;;;5008663;28;20485;-65
2024/01/26 10:43:15;;;;;;;4.07;1.13;;;10.90;99.90;;;;;;5006675;28;20083;-67
2024/01/26 10:45:41;;;;;;;3.15;1.25;;;11.00;99.90;;;;;;4997923;28;20069;-65
2024/01/26 10:48:10;;;;;;;3.13;1.27;;;11.10;99.90;;;;;;4997471;28;20433;-65
2024/01/26 10:50:39;;;;;;;2.10;1.10;;;11.10;99.90;;;;;;5004274;28;20108;-66
2024/01/26 10:53:05;;;;;;;4.20;1.20;;;11.10;99.90;;;;;;5007378;28;20088;-67
2024/01/26 10:55:31;;;;;;;4.75;1.33;;;11.10;99.90;;;;;;4998783;28;20448;-67
2024/01/26 10:57:59;;;;;;;3.00;1.27;;;11.10;99.90;;;;;;5007593;28;20037;-62
2024/01/26 11:00:25;;;;;;;1.98;1.17;;;11.00;99.90;;;;;;5008161;28;20125;-66
2024/01/26 11:02:51;;;;;;;4.30;1.23;;;10.90;99.90;;;;;;5008881;28;20122;-66
2024/01/26 11:05:17;;;;;;;3.90;1.33;;;10.70;99.90;;;;;;5006660;28;20494;-66
2024/01/26 11:07:44;;;;;;;3.05;1.42;;;10.70;99.90;;;;;;5007206;28;20030;-68
2024/01/26 11:10:16;;;;;;;3.88;1.30;;;10.60;99.90;;;;;;5007976;28;20036;-66
2024/01/26 11:12:42;;;;;;;6.13;1.60;;;10.50;99.90;;;;;;5007507;28;20034;-67
2024/01/26 11:15:13;;;;;;;4.13;1.95;;;10.40;99.90;;;;;;4999289;28;20434;-65
2024/01/26 11:17:53;;;;;;;7.97;1.42;;;10.30;99.90;;;;;;4994786;28;20018;-65
2024/01/26 11:20:32;;;;;;;3.93;1.30;;;10.30;99.90;;;;;;5007379;28;20026;-65
2024/01/26 11:23:09;;;;;;;3.10;1.50;;;10.30;99.90;;;;;;5005298;28;20283;-66
2024/01/26 11:25:35;;;;;;;3.78;1.52;;;10.20;99.90;;;;;;5003497;28;20042;-65
2024/01/26 11:28:02;;;;;;;4.38;1.85;;;10.20;99.90;;;;;;5003279;28;20037;-65
2024/01/26 11:30:29;;;;;;;5.00;2.13;;;10.20;99.90;;;;;;5006334;28;20028;-65
2024/01/26 11:32:55;;;;;;;3.85;2.03;;;10.10;99.90;;;;;;5005884;28;20026;-64
2024/01/26 11:35:21;;;;;;;5.70;1.85;;;10.20;99.90;;;;;;5002252;28;20046;-66
2024/01/26 11:37:50;;;;;;;3.60;1.88;;;10.10;99.90;;;;;;5018916;28;20033;-66
2024/01/26 11:40:17;;;;;;;3.42;1.60;;;10.10;99.90;;;;;;5002257;28;20033;-66
2024/01/26 11:42:42;;;;;;;3.40;1.52;;;10.10;99.90;;;;;;4999849;28;20030;-65
2024/01/26 11:45:14;;;;;;;5.13;1.85;;;10.00;99.90;;;;;;5005572;28;20127;-66
2024/01/26 11:47:41;;;;;;;4.07;1.83;;;10.00;99.90;;;;;;5003755;28;20049;-65
2024/01/26 11:50:08;;;;;;;4.60;2.03;;;9.90;99.90;;;;;;5002367;28;20033;-69
2024/01/26 11:52:37;;;;;;;4.72;2.30;;;9.90;99.90;;;;;;5004879;28;20074;-65
2024/01/26 11:55:05;;;;;;;4.72;2.08;;;9.80;99.90;;;;;;5007783;28;20037;-66
2024/01/26 11:57:32;;;;;;;4.78;2.03;;;9.80;99.90;;;;;;5010587;28;20060;-66
2024/01/26 12:00:05;;;;;;;5.65;2.47;;;9.80;99.90;;;;;;5009861;28;20378;-64
2024/01/26 12:02:30;;;;;;;5.68;2.03;;;9.70;99.90;;;;;;5002057;28;20136;-65
2024/01/26 12:04:56;;;;;;;6.57;2.50;;;9.70;99.90;;;;;;5009884;28;20077;-63
2024/01/26 12:07:22;;;;;;;5.65;2.20;;;9.70;99.90;;;;;;5008189;28;20044;-65
2024/01/26 12:09:48;;;;;;;5.75;2.35;;;9.70;99.90;;;;;;5005544;28;20038;-66
2024/01/26 12:12:15;;;;;;;3.83;1.98;;;9.70;99.90;;;;;;5004076;28;20042;-66
2024/01/26 12:14:40;;;;;;;7.28;2.58;;;9.70;99.90;;;;;;5005540;28;20117;-66
2024/01/26 12:17:06;;;;;;;5.30;2.60;;;9.70;99.90;;;;;;5008193;28;20203;-69
2024/01/26 12:19:32;;;;;;;7.45;2.80;;;9.70;99.90;;;;;;5007454;28;20036;-67
2024/01/26 12:21:58;;;;;;;7.38;2.60;;;9.70;99.90;;;;;;5011075;28;20022;-64
2024/01/26 12:24:23;;;;;;;7.38;2.90;;;9.60;99.90;;;;;;5010830;28;20030;-65
2024/01/26 12:26:50;;;;;;;6.40;2.58;;;9.60;99.90;;;;;;4992488;28;20084;-65
2024/01/26 12:29:16;;;;;;;9.43;2.75;;;9.60;99.90;;;;;;4993556;28;20049;-66
2024/01/26 12:31:42;;;;;;;7.30;2.97;;;9.60;99.90;;;;;;4992233;28;20061;-66
2024/01/26 12:34:12;;;;;;;5.80;2.80;;;9.60;99.90;;;;;;5010699;28;20038;-69
2024/01/26 12:36:37;;;;;;;9.45;3.03;;;9.60;99.90;;;;;;5010527;28;20037;-65
2024/01/26 12:39:03;;;;;;;4.65;2.70;;;9.60;99.90;;;;;;5011180;28;20392;-65
2024/01/26 12:41:31;;;;;;;6.28;2.65;;;9.60;99.90;;;;;;5009856;28;20806;-65
2024/01/26 12:43:57;;;;;;;7.55;2.88;;;9.60;99.90;;;;;;5011240;28;20399;-67
2024/01/26 12:46:22;;;;;;;6.60;3.08;;;9.60;99.90;;;;;;5005430;28;20045;-66